Time;durP1;ratioP1;P1;durP2;ratioP2;P2;SDS_P1;SDS_P2;PMS_P1;PMS_P2;Temp;Humidity;BMP_temperature;BMP_pressure;BME280_temperature;BME280_humidity;BME280_pressure;Samples;Min_cycle;Max_cycle;Signal;HPM_P1;HPM_P2
2021/08/30 00:01:03;;;;;;;8.40;5.73;;;16.90;99.90;;;;;;5015349;28;20689;-57
2021/08/30 00:03:30;;;;;;;11.03;6.60;;;16.90;99.90;;;;;;5017163;28;20288;-57
2021/08/30 00:05:57;;;;;;;10.57;5.93;;;16.90;99.90;;;;;;5018323;28;20276;-57
2021/08/30 00:08:24;;;;;;;8.67;5.77;;;17.00;99.90;;;;;;5017378;28;20252;-57
2021/08/30 00:10:51;;;;;;;7.90;5.47;;;17.10;99.90;;;;;;5012911;28;21641;-57
2021/08/30 00:13:18;;;;;;;11.47;6.10;;;17.10;99.90;;;;;;5018036;28;20288;-57
2021/08/30 00:15:45;;;;;;;12.07;5.83;;;17.00;99.90;;;;;;5013651;28;20295;-57
2021/08/30 00:18:11;;;;;;;11.40;6.43;;;17.00;99.90;;;;;;5013866;28;20256;-57
2021/08/30 00:20:38;;;;;;;10.43;6.20;;;16.90;99.90;;;;;;5015275;28;20675;-57
2021/08/30 00:23:05;;;;;;;10.00;6.10;;;16.90;99.90;;;;;;5017165;28;20297;-57
2021/08/30 00:25:32;;;;;;;11.37;6.20;;;17.00;99.90;;;;;;5015035;28;20744;-57
2021/08/30 00:27:59;;;;;;;8.43;5.80;;;17.00;99.90;;;;;;5017683;28;20290;-57
2021/08/30 00:30:27;;;;;;;12.50;6.50;;;16.90;99.90;;;;;;5018367;28;20355;-57
2021/08/30 00:32:54;;;;;;;8.60;5.57;;;16.90;99.90;;;;;;5013369;28;20254;-57
2021/08/30 00:35:21;;;;;;;9.23;5.57;;;16.90;99.90;;;;;;5013817;28;20215;-57
2021/08/30 00:37:48;;;;;;;11.60;5.83;;;16.90;99.90;;;;;;5016510;28;20226;-57
2021/08/30 00:40:15;;;;;;;9.60;6.57;;;16.90;99.90;;;;;;5016432;28;20597;-57
2021/08/30 00:42:44;;;;;;;11.73;5.93;;;16.90;99.90;;;;;;5016946;28;20199;-57
2021/08/30 00:45:12;;;;;;;13.07;6.50;;;16.90;99.90;;;;;;5018075;28;20297;-57
2021/08/30 00:47:43;;;;;;;10.20;5.80;;;16.90;99.90;;;;;;5015612;28;20291;-57
2021/08/30 00:50:13;;;;;;;8.07;5.80;;;17.00;99.90;;;;;;5018137;28;20753;-57
2021/08/30 00:52:42;;;;;;;11.33;6.77;;;17.00;99.90;;;;;;5018428;28;20204;-57
2021/08/30 00:55:09;;;;;;;8.97;5.97;;;17.10;99.90;;;;;;5020392;28;20638;-57
2021/08/30 00:57:36;;;;;;;9.57;5.67;;;17.00;99.90;;;;;;5020301;28;20295;-57
2021/08/30 01:00:05;;;;;;;9.73;6.30;;;16.90;99.90;;;;;;5019379;28;20230;-57
2021/08/30 01:02:33;;;;;;;10.10;6.50;;;16.80;99.90;;;;;;5017606;28;20197;-57
2021/08/30 01:05:00;;;;;;;10.60;6.37;;;16.80;99.90;;;;;;5033564;28;20296;-57
2021/08/30 01:07:42;;;;;;;12.63;5.97;;;16.70;99.90;;;;;;5019421;28;20233;-57
2021/08/30 01:10:26;;;;;;;8.73;5.53;;;16.70;99.90;;;;;;5016681;28;20209;-57
2021/08/30 01:13:10;;;;;;;8.60;5.80;;;16.70;99.90;;;;;;5018295;28;20654;-57
2021/08/30 01:15:40;;;;;;;8.93;5.67;;;16.80;99.90;;;;;;5019368;28;20216;-57
2021/08/30 01:18:13;;;;;;;11.73;6.47;;;16.80;99.90;;;;;;5023682;28;20240;-57
2021/08/30 01:20:46;;;;;;;8.27;5.20;;;16.80;99.90;;;;;;5023853;28;20831;-57
2021/08/30 01:23:15;;;;;;;9.73;5.73;;;16.90;99.90;;;;;;5018794;28;20209;-57
2021/08/30 01:25:42;;;;;;;11.83;5.30;;;16.90;99.90;;;;;;5022468;28;20213;-57
2021/08/30 01:28:09;;;;;;;9.73;5.57;;;17.00;99.90;;;;;;5021902;28;20202;-57
2021/08/30 01:30:37;;;;;;;8.60;5.53;;;17.00;99.90;;;;;;5015274;28;20235;-57
2021/08/30 01:33:04;;;;;;;8.80;5.33;;;16.90;99.90;;;;;;5019734;28;20668;-57
2021/08/30 01:35:32;;;;;;;7.53;4.90;;;17.00;99.90;;;;;;5020429;28;20309;-57
2021/08/30 01:38:02;;;;;;;8.27;5.37;;;17.10;99.90;;;;;;5021039;28;20194;-57
2021/08/30 01:40:30;;;;;;;9.97;5.57;;;16.90;99.90;;;;;;5020359;28;20281;-57
2021/08/30 01:43:00;;;;;;;7.67;5.70;;;16.80;99.90;;;;;;5021812;28;20347;-57
2021/08/30 01:45:30;;;;;;;8.87;5.03;;;16.80;99.90;;;;;;5019358;28;20228;-57
2021/08/30 01:48:00;;;;;;;9.87;5.80;;;17.00;99.90;;;;;;5019499;28;20592;-57
2021/08/30 01:50:29;;;;;;;8.57;6.00;;;16.90;99.90;;;;;;5020270;28;20294;-57
2021/08/30 01:52:59;;;;;;;12.30;6.83;;;16.90;99.90;;;;;;5019272;28;20293;-57
2021/08/30 02:00:44;;;;;;;8.40;4.87;;;17.00;99.90;;;;;;5018258;28;20203;-57
2021/08/30 02:03:14;;;;;;;9.20;6.13;;;16.90;99.90;;;;;;5019663;28;20306;-57
2021/08/30 02:06:07;;;;;;;7.37;5.10;;;16.80;99.90;;;;;;5021147;28;20616;-57
2021/08/30 02:08:34;;;;;;;8.90;5.57;;;16.90;99.90;;;;;;5015956;28;20303;-57
2021/08/30 02:11:05;;;;;;;6.20;5.13;;;16.90;99.90;;;;;;5013079;28;20740;-57
2021/08/30 02:13:32;;;;;;;10.83;5.77;;;16.90;99.90;;;;;;5020851;28;20283;-57
2021/08/30 02:16:01;;;;;;;9.00;5.60;;;16.90;99.90;;;;;;5019874;28;20676;-57
2021/08/30 02:18:57;;;;;;;8.87;5.67;;;16.90;99.90;;;;;;5020079;28;20200;-57
2021/08/30 02:21:45;;;;;;;8.37;5.40;;;17.10;99.90;;;;;;5022361;28;20319;-57
2021/08/30 02:24:31;;;;;;;9.00;5.40;;;16.90;99.90;;;;;;5020539;28;20285;-57
2021/08/30 02:27:02;;;;;;;8.13;5.33;;;17.00;99.90;;;;;;5021376;28;20982;-57
2021/08/30 02:29:36;;;;;;;8.87;5.27;;;16.90;99.90;;;;;;5013360;28;20227;-57
2021/08/30 02:32:05;;;;;;;7.30;5.43;;;16.90;99.90;;;;;;5016695;28;20787;-57
2021/08/30 02:34:34;;;;;;;11.80;6.30;;;17.00;99.90;;;;;;5021645;28;20382;-57
2021/08/30 02:37:02;;;;;;;8.57;5.73;;;17.00;99.90;;;;;;5016202;28;20592;-57
2021/08/30 02:39:30;;;;;;;11.20;5.47;;;16.90;99.90;;;;;;5019086;28;20290;-57
2021/08/30 02:41:59;;;;;;;7.97;6.03;;;16.80;99.90;;;;;;5018900;28;20301;-57
2021/08/30 02:44:26;;;;;;;11.47;6.03;;;16.80;99.90;;;;;;5014361;28;20659;-57
2021/08/30 02:46:54;;;;;;;6.80;5.57;;;16.90;99.90;;;;;;5018742;28;20287;-57
2021/08/30 02:49:22;;;;;;;8.53;5.20;;;17.00;99.90;;;;;;5017421;28;20242;-57
2021/08/30 02:51:50;;;;;;;9.57;5.33;;;17.00;99.90;;;;;;5020258;28;20210;-57
2021/08/30 02:54:19;;;;;;;8.90;5.30;;;16.90;99.90;;;;;;5016692;28;20299;-57
2021/08/30 02:56:45;;;;;;;9.43;5.50;;;17.00;99.90;;;;;;5017092;28;20625;-57
2021/08/30 02:59:13;;;;;;;8.63;5.60;;;16.90;99.90;;;;;;5017971;28;20302;-57
2021/08/30 03:01:41;;;;;;;7.27;5.20;;;16.90;99.90;;;;;;5016554;28;20219;-57
2021/08/30 03:04:12;;;;;;;8.60;5.83;;;16.90;99.90;;;;;;5020926;28;20212;-57
2021/08/30 03:06:40;;;;;;;8.23;5.60;;;17.00;99.90;;;;;;5019321;28;20552;-57
2021/08/30 03:09:07;;;;;;;8.30;6.00;;;17.10;99.90;;;;;;5016680;28;20299;-57
2021/08/30 03:11:36;;;;;;;8.53;5.60;;;17.20;99.90;;;;;;5017888;28;20935;-57
2021/08/30 03:14:03;;;;;;;8.07;5.43;;;17.20;99.90;;;;;;5017963;28;20234;-57
2021/08/30 03:16:34;;;;;;;8.53;5.80;;;17.20;99.90;;;;;;5019695;28;20224;-57
2021/08/30 03:19:02;;;;;;;8.73;5.53;;;17.20;99.90;;;;;;5022623;28;20248;-57
2021/08/30 03:21:30;;;;;;;8.50;5.53;;;17.10;99.90;;;;;;5014533;28;20285;-57
2021/08/30 03:23:58;;;;;;;11.20;6.13;;;17.10;99.90;;;;;;5015377;28;20224;-57
2021/08/30 03:26:26;;;;;;;7.90;5.30;;;17.00;99.90;;;;;;5019134;28;20260;-57
2021/08/30 03:28:54;;;;;;;10.23;6.27;;;17.00;99.90;;;;;;5014999;28;20313;-57
2021/08/30 03:31:24;;;;;;;8.57;5.90;;;16.90;99.90;;;;;;5018632;28;20512;-57
2021/08/30 03:33:51;;;;;;;10.50;5.80;;;17.10;99.90;;;;;;5012890;28;20342;-57
2021/08/30 03:36:18;;;;;;;9.63;6.27;;;17.10;99.90;;;;;;5018403;28;20309;-57
2021/08/30 03:38:45;;;;;;;8.90;6.10;;;17.00;99.90;;;;;;5018935;28;20289;-57
2021/08/30 03:41:14;;;;;;;8.67;6.13;;;17.00;99.90;;;;;;5020656;28;20279;-57
2021/08/30 03:43:42;;;;;;;8.60;6.17;;;16.90;99.90;;;;;;5017178;28;20757;-57
2021/08/30 03:46:10;;;;;;;7.97;5.80;;;16.80;99.90;;;;;;5018071;28;20273;-57
2021/08/30 03:48:37;;;;;;;9.17;6.00;;;16.80;99.90;;;;;;5015626;28;20661;-57
2021/08/30 03:51:05;;;;;;;6.97;5.40;;;16.90;99.90;;;;;;5014381;28;20814;-57
2021/08/30 03:53:34;;;;;;;7.80;5.17;;;16.90;99.90;;;;;;5018267;28;20248;-57
2021/08/30 03:56:03;;;;;;;9.47;5.87;;;16.90;99.90;;;;;;5016672;28;20238;-57
2021/08/30 03:58:31;;;;;;;11.57;6.53;;;16.80;99.90;;;;;;5016618;28;20199;-57
2021/08/30 04:01:04;;;;;;;8.73;6.10;;;16.90;99.90;;;;;;5020709;28;20523;-57
2021/08/30 04:03:35;;;;;;;8.40;6.20;;;16.80;99.90;;;;;;5014018;28;20210;-57
2021/08/30 04:06:03;;;;;;;11.60;6.67;;;16.90;99.90;;;;;;5019304;28;20199;-57
2021/08/30 04:08:30;;;;;;;9.00;5.97;;;16.90;99.90;;;;;;5018296;28;20297;-57
2021/08/30 04:11:01;;;;;;;10.57;6.07;;;17.00;99.90;;;;;;5020398;28;20680;-57
2021/08/30 04:13:28;;;;;;;9.07;6.57;;;16.90;99.90;;;;;;5014677;28;20227;-57
2021/08/30 04:15:55;;;;;;;8.93;6.60;;;16.90;99.90;;;;;;5019668;28;20514;-57
2021/08/30 04:18:22;;;;;;;8.67;6.20;;;16.80;99.90;;;;;;5018019;28;20197;-57
2021/08/30 04:20:49;;;;;;;9.80;6.27;;;16.90;99.90;;;;;;5017923;28;20284;-57
2021/08/30 04:23:16;;;;;;;11.37;6.40;;;16.90;99.90;;;;;;5016271;28;21476;-57
2021/08/30 04:25:42;;;;;;;7.33;5.60;;;16.80;99.90;;;;;;5020376;28;20281;-57
2021/08/30 04:28:09;;;;;;;12.13;6.23;;;16.90;99.90;;;;;;5017459;28;20695;-57
2021/08/30 04:30:36;;;;;;;10.90;6.83;;;16.80;99.90;;;;;;5014528;28;20213;-57
2021/08/30 04:33:06;;;;;;;11.00;6.23;;;16.80;99.90;;;;;;5012384;28;20608;-57
2021/08/30 04:35:33;;;;;;;11.17;6.87;;;16.70;99.90;;;;;;5015161;28;20604;-57
2021/08/30 04:38:00;;;;;;;15.00;6.73;;;16.60;99.90;;;;;;5011085;28;20231;-57
2021/08/30 04:40:26;;;;;;;15.17;6.87;;;16.60;99.90;;;;;;5017091;28;20288;-57
2021/08/30 04:42:53;;;;;;;11.40;5.97;;;16.70;99.90;;;;;;5015353;28;20931;-57
2021/08/30 04:45:20;;;;;;;13.50;6.43;;;16.80;99.90;;;;;;5022743;28;21411;-57
2021/08/30 04:47:47;;;;;;;8.90;5.97;;;16.80;99.90;;;;;;5022771;28;20267;-57
2021/08/30 04:50:14;;;;;;;11.87;7.03;;;16.60;99.90;;;;;;5024161;28;20930;-57
2021/08/30 04:52:41;;;;;;;9.77;6.60;;;16.70;99.90;;;;;;5020480;28;20236;-57
2021/08/30 04:55:08;;;;;;;11.17;7.13;;;16.60;99.90;;;;;;5020708;28;20338;-57
2021/08/30 04:57:35;;;;;;;12.13;7.07;;;16.60;99.90;;;;;;5022363;28;20649;-57
2021/08/30 05:00:03;;;;;;;10.97;6.90;;;16.60;99.90;;;;;;5020712;28;20287;-57
2021/08/30 05:02:29;;;;;;;11.00;7.23;;;16.60;99.90;;;;;;5018350;28;20569;-57
2021/08/30 05:04:58;;;;;;;9.63;6.63;;;16.60;99.90;;;;;;5021100;28;20207;-57
2021/08/30 05:07:25;;;;;;;11.57;8.07;;;16.60;99.90;;;;;;5017364;28;20589;-57
2021/08/30 05:09:52;;;;;;;14.27;7.33;;;16.70;99.90;;;;;;5019053;28;20202;-57
2021/08/30 05:12:21;;;;;;;12.57;7.87;;;16.80;99.90;;;;;;5020014;28;20234;-57
2021/08/30 05:14:48;;;;;;;12.10;7.60;;;16.80;99.90;;;;;;5020594;28;20239;-57
2021/08/30 05:17:15;;;;;;;13.27;8.10;;;16.80;99.90;;;;;;5017006;28;20245;-57
2021/08/30 05:19:42;;;;;;;10.53;7.77;;;16.80;99.90;;;;;;5017015;28;20235;-57
2021/08/30 05:22:10;;;;;;;13.00;8.30;;;16.80;99.90;;;;;;5018582;28;20202;-57
2021/08/30 05:24:37;;;;;;;13.77;7.77;;;16.80;99.90;;;;;;5013965;28;20234;-57
2021/08/30 05:27:04;;;;;;;11.53;6.93;;;16.90;99.90;;;;;;5012045;28;20271;-57
2021/08/30 05:29:30;;;;;;;13.90;7.57;;;16.80;99.90;;;;;;5020354;28;20286;-57
2021/08/30 05:31:57;;;;;;;10.87;8.23;;;16.80;99.90;;;;;;5020093;28;20656;-57
2021/08/30 05:34:24;;;;;;;11.63;8.10;;;16.80;99.90;;;;;;5020480;28;20370;-57
2021/08/30 05:36:51;;;;;;;12.90;8.17;;;16.80;99.90;;;;;;5022477;28;20210;-57
2021/08/30 05:39:18;;;;;;;13.80;8.17;;;16.90;99.90;;;;;;5016110;28;20315;-57
2021/08/30 05:41:44;;;;;;;14.33;8.93;;;16.90;99.90;;;;;;5023681;28;20647;-57
2021/08/30 05:44:11;;;;;;;12.20;8.10;;;17.00;99.90;;;;;;5019911;28;20293;-57
2021/08/30 05:46:38;;;;;;;14.60;8.23;;;17.00;99.90;;;;;;5021677;28;20228;-57
2021/08/30 05:49:05;;;;;;;12.67;8.83;;;16.90;99.90;;;;;;5020704;28;20301;-57
2021/08/30 05:51:32;;;;;;;11.93;8.47;;;17.00;99.90;;;;;;5023394;28;20725;-57
2021/08/30 05:53:58;;;;;;;12.50;9.03;;;17.00;99.90;;;;;;5018742;28;20257;-57
2021/08/30 05:56:27;;;;;;;15.03;8.70;;;17.00;99.90;;;;;;5010306;28;20715;-58
2021/08/30 05:58:54;;;;;;;11.60;8.20;;;17.00;99.90;;;;;;5014496;28;20340;-57
2021/08/30 06:01:20;;;;;;;19.27;9.27;;;16.90;99.90;;;;;;5005529;28;20348;-57
2021/08/30 06:03:47;;;;;;;15.83;9.03;;;17.00;99.90;;;;;;5017811;28;20283;-60
2021/08/30 06:06:14;;;;;;;15.63;8.77;;;17.00;99.90;;;;;;5004662;28;20665;-58
2021/08/30 06:08:41;;;;;;;15.37;9.00;;;17.10;99.90;;;;;;5013969;28;20202;-57
2021/08/30 06:11:08;;;;;;;18.07;9.63;;;17.00;99.90;;;;;;5015287;28;20312;-57
2021/08/30 06:13:34;;;;;;;14.03;8.97;;;17.10;99.90;;;;;;5020335;28;20204;-57
2021/08/30 06:16:01;;;;;;;13.73;9.00;;;17.10;99.90;;;;;;5016683;28;20288;-57
2021/08/30 06:18:29;;;;;;;13.90;9.30;;;17.10;99.90;;;;;;5017841;28;20211;-57
2021/08/30 06:20:56;;;;;;;15.70;9.63;;;17.10;99.90;;;;;;5016088;28;20196;-57
2021/08/30 06:23:22;;;;;;;16.17;9.23;;;17.20;99.90;;;;;;5017521;28;20281;-57
2021/08/30 06:25:49;;;;;;;15.63;8.87;;;17.10;99.90;;;;;;5017381;28;20288;-57
2021/08/30 06:28:16;;;;;;;19.80;9.90;;;17.30;99.90;;;;;;5024957;28;20284;-57
2021/08/30 06:30:43;;;;;;;12.13;8.97;;;17.40;99.90;;;;;;5018716;28;20632;-57
2021/08/30 06:33:10;;;;;;;14.50;9.53;;;17.40;99.90;;;;;;5015342;28;20318;-58
2021/08/30 06:35:42;;;;;;;14.33;9.57;;;17.40;99.90;;;;;;5021346;28;20237;-57
2021/08/30 06:38:13;;;;;;;16.47;9.60;;;17.30;99.90;;;;;;5019062;28;20214;-57
2021/08/30 06:40:41;;;;;;;16.10;10.27;;;17.30;99.90;;;;;;5012489;28;20245;-57
2021/08/30 06:43:07;;;;;;;15.43;10.33;;;17.40;99.90;;;;;;5018666;28;20289;-57
2021/08/30 06:45:35;;;;;;;16.17;10.20;;;17.40;99.90;;;;;;5018500;28;20325;-57
2021/08/30 06:48:02;;;;;;;15.33;9.07;;;17.30;99.90;;;;;;5013842;28;20543;-57
2021/08/30 06:50:29;;;;;;;17.87;10.00;;;17.40;99.90;;;;;;5012426;28;20199;-57
2021/08/30 06:52:55;;;;;;;14.70;9.63;;;17.60;99.90;;;;;;5018789;28;20251;-57
2021/08/30 06:55:22;;;;;;;16.37;9.97;;;17.50;99.90;;;;;;5022823;28;20231;-57
2021/08/30 06:57:49;;;;;;;19.13;9.77;;;17.50;99.90;;;;;;5017757;28;20380;-57
2021/08/30 07:00:18;;;;;;;13.13;9.33;;;17.60;99.90;;;;;;5015379;28;20206;-57
2021/08/30 07:02:45;;;;;;;16.70;9.67;;;17.60;99.90;;;;;;5019639;28;20618;-57
2021/08/30 07:05:12;;;;;;;15.83;9.73;;;17.60;99.90;;;;;;5009321;28;20683;-57
2021/08/30 07:07:39;;;;;;;14.33;9.60;;;17.60;99.90;;;;;;5022311;28;20368;-57
2021/08/30 07:10:07;;;;;;;17.57;9.93;;;17.60;99.90;;;;;;5018548;28;20213;-58
2021/08/30 07:12:33;;;;;;;15.50;9.10;;;17.60;99.90;;;;;;5020103;28;20299;-57
2021/08/30 07:15:00;;;;;;;13.87;9.53;;;17.60;99.90;;;;;;5020919;28;20261;-57
2021/08/30 07:17:27;;;;;;;14.90;9.77;;;17.50;99.90;;;;;;5017135;28;20210;-57
2021/08/30 07:19:54;;;;;;;17.60;9.43;;;17.60;99.90;;;;;;5012557;28;20287;-57
2021/08/30 07:22:21;;;;;;;14.57;10.03;;;17.60;99.90;;;;;;5024734;28;20693;-60
2021/08/30 07:24:48;;;;;;;16.57;9.70;;;17.60;99.90;;;;;;5018186;28;20253;-52
2021/08/30 07:27:15;;;;;;;17.30;9.50;;;17.60;99.90;;;;;;5022940;28;20202;-53
2021/08/30 07:29:42;;;;;;;16.60;9.80;;;17.70;99.90;;;;;;5015544;28;20574;-52
2021/08/30 07:32:09;;;;;;;16.47;9.27;;;17.80;99.90;;;;;;5020170;28;20704;-52
2021/08/30 07:34:36;;;;;;;17.87;10.43;;;17.70;99.90;;;;;;5020756;28;20245;-52
2021/08/30 07:37:04;;;;;;;13.53;8.73;;;17.60;99.90;;;;;;5017327;28;20208;-53
2021/08/30 07:39:31;;;;;;;15.40;9.53;;;17.70;99.90;;;;;;5016205;28;20288;-52
2021/08/30 07:41:58;;;;;;;14.83;9.83;;;17.70;99.90;;;;;;5021662;28;20243;-53
2021/08/30 07:44:25;;;;;;;20.80;10.17;;;17.70;99.90;;;;;;5018430;28;20283;-52
2021/08/30 07:46:52;;;;;;;17.40;9.53;;;17.60;99.90;;;;;;5018062;28;20305;-53
2021/08/30 07:49:18;;;;;;;16.80;9.57;;;17.70;99.90;;;;;;4999852;28;20570;-53
2021/08/30 07:51:46;;;;;;;21.53;10.07;;;17.70;99.90;;;;;;5019357;28;20202;-52
2021/08/30 07:54:12;;;;;;;14.23;9.70;;;17.60;99.90;;;;;;5017933;28;20228;-52
2021/08/30 07:56:40;;;;;;;12.73;8.83;;;17.70;99.90;;;;;;5017400;28;20817;-52
2021/08/30 07:59:08;;;;;;;18.60;10.30;;;17.70;99.90;;;;;;5020622;28;20294;-52
2021/08/30 08:01:36;;;;;;;14.67;8.93;;;17.70;99.90;;;;;;5018666;28;20233;-52
2021/08/30 08:04:04;;;;;;;15.33;9.43;;;17.70;99.90;;;;;;5021778;28;20276;-52
2021/08/30 08:06:31;;;;;;;18.10;9.97;;;17.90;99.90;;;;;;5020112;28;20202;-52
2021/08/30 08:08:58;;;;;;;16.67;10.03;;;17.80;99.90;;;;;;5021249;28;20557;-52
2021/08/30 08:11:25;;;;;;;18.70;10.03;;;17.90;99.90;;;;;;5023202;28;20247;-52
2021/08/30 08:13:52;;;;;;;16.93;9.67;;;18.00;99.90;;;;;;5018328;28;20298;-52
2021/08/30 08:16:19;;;;;;;14.63;8.73;;;18.10;99.90;;;;;;5016178;28;20227;-52
2021/08/30 08:18:45;;;;;;;19.80;10.30;;;18.20;99.90;;;;;;5023686;28;20284;-52
2021/08/30 08:21:12;;;;;;;12.90;8.80;;;18.20;99.90;;;;;;5022013;28;20211;-52
2021/08/30 08:23:39;;;;;;;12.67;9.50;;;18.20;99.90;;;;;;5021207;28;20336;-52
2021/08/30 08:26:06;;;;;;;11.97;8.77;;;18.30;99.90;;;;;;5026131;28;20226;-52
2021/08/30 08:28:33;;;;;;;13.80;9.00;;;18.40;99.90;;;;;;5027722;28;20198;-52
2021/08/30 08:31:00;;;;;;;13.60;8.90;;;18.50;99.90;;;;;;5014778;28;20215;-53
2021/08/30 08:33:27;;;;;;;11.47;8.70;;;18.50;99.90;;;;;;5020909;28;20292;-53
2021/08/30 08:35:54;;;;;;;11.70;8.37;;;18.50;99.90;;;;;;5019872;28;20207;-52
2021/08/30 08:38:23;;;;;;;13.17;8.27;;;18.60;99.90;;;;;;5018313;28;20295;-52
2021/08/30 08:40:51;;;;;;;13.30;9.23;;;18.70;99.90;;;;;;5024038;28;20209;-52
2021/08/30 08:43:19;;;;;;;16.17;8.30;;;18.70;99.90;;;;;;5020110;28;20204;-52
2021/08/30 08:45:47;;;;;;;15.43;8.30;;;18.80;99.90;;;;;;5023890;28;20579;-52
2021/08/30 08:48:15;;;;;;;11.90;8.17;;;18.80;99.90;;;;;;5021394;28;20599;-52
2021/08/30 08:50:44;;;;;;;14.17;8.03;;;18.70;99.90;;;;;;5023641;28;20771;-52
2021/08/30 08:53:11;;;;;;;11.27;8.20;;;18.70;99.90;;;;;;5023643;28;20212;-52
2021/08/30 08:55:38;;;;;;;10.30;7.93;;;18.80;99.90;;;;;;5021824;28;20687;-52
2021/08/30 08:58:20;;;;;;;12.73;8.00;;;18.90;99.90;;;;;;5029118;28;20218;-53
2021/08/30 09:01:10;;;;;;;12.57;8.47;;;18.90;99.90;;;;;;5022746;28;20285;-53
2021/08/30 09:03:51;;;;;;;13.13;7.80;;;19.00;99.90;;;;;;5023850;28;20269;-53
2021/08/30 09:06:28;;;;;;;11.93;7.60;;;18.90;99.90;;;;;;5026683;28;20253;-52
2021/08/30 09:09:07;;;;;;;15.17;8.83;;;19.00;99.90;;;;;;5019563;28;20650;-52
2021/08/30 09:11:40;;;;;;;10.87;7.70;;;19.10;99.90;;;;;;5017995;28;20207;-53
2021/08/30 09:14:14;;;;;;;10.07;7.73;;;19.30;99.90;;;;;;5017124;28;20249;-52
2021/08/30 09:16:41;;;;;;;11.87;7.33;;;19.20;99.90;;;;;;5025796;28;20248;-52
2021/08/30 09:19:11;;;;;;;10.77;7.67;;;19.10;99.90;;;;;;5021589;28;20323;-52
2021/08/30 09:21:49;;;;;;;10.97;7.60;;;19.10;99.90;;;;;;5020958;28;20299;-52
2021/08/30 09:24:22;;;;;;;11.97;7.43;;;19.10;99.90;;;;;;5019709;28;20238;-52
2021/08/30 09:27:03;;;;;;;15.60;8.60;;;19.10;99.90;;;;;;5019560;28;20466;-52
2021/08/30 09:29:32;;;;;;;12.77;7.57;;;19.10;99.90;;;;;;5019241;28;20297;-52
2021/08/30 09:32:04;;;;;;;12.23;7.97;;;19.10;99.90;;;;;;5022749;28;20282;-52
2021/08/30 09:34:36;;;;;;;11.53;7.53;;;19.10;99.90;;;;;;5022172;28;20311;-52
2021/08/30 09:37:05;;;;;;;10.47;7.37;;;19.20;99.90;;;;;;5016410;28;20237;-52
2021/08/30 09:39:33;;;;;;;10.90;7.77;;;19.20;99.90;;;;;;5016370;28;20699;-52
2021/08/30 09:42:01;;;;;;;9.20;6.80;;;19.20;99.90;;;;;;5016043;28;20211;-52
2021/08/30 09:44:29;;;;;;;11.53;7.83;;;19.50;99.90;;;;;;5021645;28;20310;-52
2021/08/30 09:46:56;;;;;;;14.87;7.03;;;19.60;99.90;;;;;;5018969;28;20716;-52
2021/08/30 09:49:27;;;;;;;10.93;7.43;;;19.40;99.90;;;;;;5017783;28;20208;-52
2021/08/30 09:51:54;;;;;;;12.87;7.57;;;19.30;99.90;;;;;;5021826;28;20297;-52
2021/08/30 09:54:23;;;;;;;9.70;6.77;;;19.20;99.90;;;;;;5018148;28;20204;-52
2021/08/30 09:56:50;;;;;;;11.57;6.07;;;19.10;99.90;;;;;;5019552;28;20268;-52
2021/08/30 09:59:19;;;;;;;13.30;7.83;;;19.10;99.90;;;;;;5023619;28;20259;-52
2021/08/30 10:01:46;;;;;;;9.10;7.17;;;19.00;99.90;;;;;;5022953;28;20258;-52
2021/08/30 10:04:20;;;;;;;12.03;6.57;;;19.20;99.90;;;;;;5024111;28;20309;-52
2021/08/30 10:06:49;;;;;;;9.80;7.07;;;19.20;99.90;;;;;;5026667;28;20235;-51
2021/08/30 10:09:18;;;;;;;9.60;6.80;;;19.20;99.90;;;;;;5019426;28;20279;-52
2021/08/30 10:11:47;;;;;;;11.83;7.17;;;19.40;99.90;;;;;;5023898;28;20302;-52
2021/08/30 10:14:24;;;;;;;9.30;6.27;;;19.70;99.90;;;;;;5024316;28;20301;-52
2021/08/30 10:16:53;;;;;;;9.67;5.93;;;19.80;99.90;;;;;;5014300;28;20342;-52
2021/08/30 10:19:57;;;;;;;8.77;6.23;;;19.80;99.90;;;;;;5021066;28;20220;-52
2021/08/30 10:22:23;;;;;;;9.77;6.00;;;20.10;99.90;;;;;;5018414;28;20249;-52
2021/08/30 10:24:52;;;;;;;9.80;6.87;;;20.10;99.90;;;;;;5016833;28;20283;-52
2021/08/30 10:27:33;;;;;;;10.97;5.50;;;20.30;99.90;;;;;;5024332;28;20295;-52
2021/08/30 10:30:08;;;;;;;8.70;5.47;;;20.30;99.90;;;;;;5021654;28;20238;-52
2021/08/30 10:32:41;;;;;;;6.40;5.40;;;20.20;99.90;;;;;;5022865;28;20780;-52
2021/08/30 10:35:19;;;;;;;12.13;5.53;;;20.20;99.90;;;;;;5026722;28;20338;-52
2021/08/30 10:37:58;;;;;;;8.43;5.80;;;20.20;99.90;;;;;;5025025;28;20223;-52
2021/08/30 10:40:29;;;;;;;6.83;5.20;;;20.30;99.90;;;;;;5028288;28;20212;-52
2021/08/30 10:43:13;;;;;;;10.60;6.33;;;20.40;99.90;;;;;;5018569;28;20238;-52
2021/08/30 10:45:43;;;;;;;8.07;6.10;;;20.50;99.90;;;;;;5022666;28;20228;-52
2021/08/30 10:48:15;;;;;;;8.63;5.90;;;20.30;99.90;;;;;;5017343;28;20320;-52
2021/08/30 10:50:48;;;;;;;11.10;6.13;;;20.30;99.90;;;;;;5020605;28;20303;-52
2021/08/30 10:53:22;;;;;;;10.77;6.90;;;20.50;99.90;;;;;;5025868;28;20300;-52
2021/08/30 10:55:54;;;;;;;8.53;5.37;;;20.40;99.90;;;;;;5012454;28;20243;-51
2021/08/30 10:58:23;;;;;;;7.40;5.50;;;20.70;99.90;;;;;;5022519;28;20244;-51
2021/08/30 11:00:52;;;;;;;7.90;6.00;;;20.80;99.90;;;;;;5018867;28;20257;-51
2021/08/30 11:03:30;;;;;;;9.73;6.10;;;21.00;99.90;;;;;;5026305;28;20200;-51
2021/08/30 11:06:01;;;;;;;7.03;5.10;;;21.10;59.90;;;;;;5019998;28;20221;-51
2021/08/30 11:08:27;;;;;;;9.47;6.00;;;21.30;73.90;;;;;;5024645;28;20346;-51
2021/08/30 11:11:06;;;;;;;7.57;5.30;;;21.10;99.90;;;;;;5018615;28;20789;-52
2021/08/30 11:13:33;;;;;;;6.53;5.33;;;21.20;35.10;;;;;;5019026;28;20298;-51
2021/08/30 11:15:59;;;;;;;6.13;5.10;;;21.10;1.00;;;;;;5018418;28;20205;-51
2021/08/30 11:18:26;;;;;;;6.10;4.70;;;21.00;99.90;;;;;;5018785;28;20786;-51
2021/08/30 11:20:53;;;;;;;11.13;5.20;;;21.10;68.60;;;;;;5026112;28;20696;-54
2021/08/30 11:23:20;;;;;;;6.33;5.13;;;21.30;1.00;;;;;;5018594;28;20262;-51
2021/08/30 11:25:47;;;;;;;6.23;5.33;;;21.50;99.90;;;;;;5018159;28;20241;-51
2021/08/30 11:28:28;;;;;;;11.30;5.23;;;21.50;99.90;;;;;;5021587;28;20216;-51
2021/08/30 11:30:55;;;;;;;9.37;5.87;;;21.40;1.00;;;;;;5018339;28;20284;-51
2021/08/30 11:33:23;;;;;;;6.17;4.60;;;21.40;99.90;;;;;;5022090;28;20232;-51
2021/08/30 11:35:51;;;;;;;6.57;4.40;;;21.40;99.90;;;;;;5026471;28;20543;-51
2021/08/30 11:38:17;;;;;;;6.83;4.53;;;21.10;1.00;;;;;;5026320;28;20281;-51
2021/08/30 11:40:44;;;;;;;6.50;5.47;;;21.10;99.90;;;;;;5014253;28;20580;-51
2021/08/30 11:43:16;;;;;;;7.47;5.67;;;21.20;99.90;;;;;;5027066;28;20633;-51
2021/08/30 11:45:43;;;;;;;8.83;5.57;;;21.20;1.00;;;;;;5016758;28;20265;-51
2021/08/30 11:48:15;;;;;;;7.57;5.63;;;21.10;1.00;;;;;;5013889;28;20555;-51
2021/08/30 11:50:43;;;;;;;9.53;5.17;;;21.00;1.00;;;;;;5012807;28;20304;-51
2021/08/30 11:53:12;;;;;;;7.27;5.07;;;21.10;1.00;;;;;;5017774;28;20220;-51
2021/08/30 11:55:39;;;;;;;5.97;5.10;;;21.10;1.00;;;;;;5016770;28;20708;-51
2021/08/30 11:58:06;;;;;;;8.13;5.40;;;21.00;1.00;;;;;;5018002;28;20343;-51
2021/08/30 12:00:33;;;;;;;9.10;5.83;;;20.90;1.00;;;;;;5016479;28;20287;-51
2021/08/30 12:03:13;;;;;;;9.23;5.90;;;20.80;1.00;;;;;;5017805;28;20603;-51
2021/08/30 12:05:43;;;;;;;9.37;5.97;;;20.70;1.00;;;;;;5016146;28;20246;-51
2021/08/30 12:08:10;;;;;;;9.80;6.43;;;20.70;76.30;;;;;;5016471;28;20290;-51
2021/08/30 12:10:38;;;;;;;8.20;5.97;;;20.70;95.80;;;;;;5013495;28;20205;-51
2021/08/30 12:15:34;;;;;;;8.90;5.67;;;21.10;26.40;;;;;;5017741;28;20250;-51
2021/08/30 12:18:02;;;;;;;8.17;5.93;;;21.30;1.00;;;;;;5016328;28;20557;-51
2021/08/30 12:20:34;;;;;;;7.87;5.37;;;21.20;1.00;;;;;;5016759;28;20660;-51
2021/08/30 12:23:21;;;;;;;9.13;5.63;;;21.10;1.00;;;;;;5015333;28;20386;-51
2021/08/30 12:25:51;;;;;;;7.60;5.17;;;21.10;1.00;;;;;;5015229;28;20192;-51
2021/08/30 12:28:18;;;;;;;8.23;5.57;;;21.00;1.00;;;;;;5017065;28;20246;-51
2021/08/30 12:30:50;;;;;;;8.20;5.23;;;21.10;1.00;;;;;;5009297;28;20707;-51
2021/08/30 12:33:21;;;;;;;9.87;5.40;;;21.10;1.00;;;;;;5014693;28;20377;-51
2021/08/30 12:35:50;;;;;;;12.37;5.70;;;21.20;1.00;;;;;;5016031;28;20235;-51
2021/08/30 12:38:22;;;;;;;10.80;5.37;;;21.30;1.00;;;;;;5018419;28;20292;-51
2021/08/30 12:40:52;;;;;;;7.83;5.87;;;21.50;1.00;;;;;;5017623;28;20649;-50
2021/08/30 12:43:20;;;;;;;6.87;4.93;;;21.80;1.00;;;;;;5015488;28;20363;-53
2021/08/30 12:45:47;;;;;;;8.43;4.70;;;22.20;1.00;;;;;;5017095;28;20766;-53
2021/08/30 12:48:15;;;;;;;6.40;5.13;;;22.00;99.90;;;;;;5015184;28;20295;-54
2021/08/30 12:50:43;;;;;;;7.90;4.87;;;21.90;1.00;;;;;;5014817;28;20246;-51
2021/08/30 12:53:10;;;;;;;6.20;5.50;;;22.00;1.00;;;;;;5014521;28;20682;-51
2021/08/30 12:55:38;;;;;;;6.33;4.77;;;22.00;23.60;;;;;;5015239;28;20367;-53
2021/08/30 12:58:06;;;;;;;7.00;4.60;;;22.10;1.00;;;;;;5019657;28;20660;-51